createdAt,value
2019-01-29T00:00:26.519Z,6.05
2019-01-29T00:01:26.511Z,5.98
2019-01-29T00:02:26.496Z,5.98
2019-01-29T00:03:26.481Z,6.16
2019-01-29T00:04:26.478Z,6.19
2019-01-29T00:05:26.500Z,6.17
2019-01-29T00:06:26.449Z,6.14
2019-01-29T00:07:26.438Z,6.16
2019-01-29T00:08:26.436Z,6.17
2019-01-29T00:09:26.430Z,6.04
2019-01-29T00:10:26.411Z,5.98
2019-01-29T00:11:26.425Z,6.04
2019-01-29T00:12:26.401Z,6.02
2019-01-29T00:13:26.404Z,6.08
2019-01-29T00:14:26.436Z,6.19
2019-01-29T00:15:26.357Z,6.02
2019-01-29T00:16:26.370Z,6.02
2019-01-29T00:17:26.360Z,6.17
2019-01-29T00:18:26.398Z,6.12
2019-01-29T00:19:26.346Z,6.12
2019-01-29T00:20:26.300Z,6.17
2019-01-29T00:21:26.284Z,6.19
2019-01-29T00:22:33.218Z,6.14
2019-01-29T00:23:27.272Z,6.08
2019-01-29T00:24:26.260Z,5.93
2019-01-29T00:25:26.253Z,5.98
2019-01-29T00:26:26.291Z,5.93
2019-01-29T00:27:26.215Z,6.07
2019-01-29T00:28:26.244Z,6.04
2019-01-29T00:29:26.236Z,6.02
2019-01-29T00:30:26.211Z,6.07
2019-01-29T00:31:26.189Z,6.11
2019-01-29T00:32:26.176Z,6.12
2019-01-29T00:33:26.160Z,6.17
2019-01-29T00:34:26.174Z,6.19
2019-01-29T00:35:26.131Z,6.05
2019-01-29T00:36:26.131Z,6.04
2019-01-29T00:37:26.146Z,6.04
2019-01-29T00:38:26.102Z,5.91
2019-01-29T00:39:26.127Z,5.93
2019-01-29T00:40:26.079Z,6.01
2019-01-29T00:41:26.071Z,5.98
2019-01-29T00:42:26.070Z,5.99
2019-01-29T00:43:26.053Z,5.89
2019-01-29T00:44:26.051Z,5.87
2019-01-29T00:45:26.064Z,5.94
2019-01-29T00:46:26.011Z,5.91
2019-01-29T00:47:26.003Z,5.99
2019-01-29T00:48:25.997Z,5.84
2019-01-29T00:49:25.984Z,5.87
2019-01-29T00:50:25.982Z,5.79
2019-01-29T00:51:25.993Z,5.79
2019-01-29T00:52:25.969Z,5.72
2019-01-29T00:53:25.943Z,5.61
2019-01-29T00:54:26.008Z,5.66
2019-01-29T00:55:25.926Z,5.69
2019-01-29T00:56:25.950Z,5.69
2019-01-29T00:57:25.902Z,5.66
2019-01-29T00:58:25.909Z,5.75
2019-01-29T00:59:25.875Z,5.86
2019-01-29T01:00:25.885Z,5.87
2019-01-29T01:01:25.858Z,5.86
2019-01-29T01:02:25.874Z,5.87
2019-01-29T01:03:25.838Z,5.83
2019-01-29T01:04:25.824Z,5.83
2019-01-29T01:05:25.823Z,5.84
2019-01-29T01:06:25.799Z,5.86
2019-01-29T01:07:25.824Z,5.80
2019-01-29T01:08:25.790Z,5.83
2019-01-29T01:09:25.785Z,5.83
2019-01-29T01:10:25.760Z,5.79
2019-01-29T01:11:25.771Z,5.72
2019-01-29T01:12:25.734Z,5.73
2019-01-29T01:13:25.742Z,5.61
2019-01-29T01:14:25.725Z,5.69
2019-01-29T01:15:25.707Z,5.62
2019-01-29T01:16:25.697Z,5.57
2019-01-29T01:17:25.689Z,5.56
2019-01-29T01:18:25.730Z,5.68
2019-01-29T01:19:25.657Z,5.66
2019-01-29T01:20:25.644Z,5.66
2019-01-29T01:21:25.633Z,5.66
2019-01-29T01:22:25.628Z,5.69
2019-01-29T01:23:25.651Z,5.65
2019-01-29T01:24:25.622Z,5.62
2019-01-29T01:25:25.588Z,5.61
2019-01-29T01:26:25.591Z,5.56
2019-01-29T01:27:25.575Z,5.57
2019-01-29T01:28:25.566Z,5.44
2019-01-29T01:29:25.586Z,5.44
2019-01-29T01:30:25.535Z,5.47
2019-01-29T01:31:25.523Z,5.48
2019-01-29T01:32:25.572Z,5.44
2019-01-29T01:33:25.504Z,5.51
2019-01-29T01:34:25.512Z,5.41
2019-01-29T01:35:25.517Z,5.43
2019-01-29T01:36:25.482Z,5.51
2019-01-29T01:37:25.468Z,5.48
2019-01-29T01:38:25.459Z,5.53
2019-01-29T01:39:25.440Z,5.43
2019-01-29T01:40:25.469Z,5.50
2019-01-29T01:41:25.424Z,5.50
2019-01-29T01:42:25.408Z,5.47
2019-01-29T01:43:25.406Z,5.61
2019-01-29T01:44:25.390Z,5.57
2019-01-29T01:45:25.377Z,5.57
2019-01-29T01:46:25.404Z,5.61
2019-01-29T01:47:25.362Z,5.66
2019-01-29T01:48:25.344Z,5.64
2019-01-29T01:49:25.420Z,5.65
2019-01-29T01:50:25.342Z,5.68
2019-01-29T01:51:25.325Z,5.66
2019-01-29T01:52:25.346Z,5.64
2019-01-29T01:53:25.299Z,5.68
2019-01-29T01:54:25.283Z,5.71
2019-01-29T01:55:25.269Z,5.68
2019-01-29T01:56:25.267Z,5.65
2019-01-29T01:57:25.274Z,5.79
2019-01-29T01:58:25.239Z,5.72
2019-01-29T01:59:25.250Z,5.66
2019-01-29T02:00:25.216Z,5.68
2019-01-29T02:01:25.206Z,5.68
2019-01-29T02:02:25.219Z,5.64
2019-01-29T02:03:25.213Z,5.71
2019-01-29T02:04:25.180Z,5.71
2019-01-29T02:05:25.171Z,5.75
2019-01-29T02:06:25.155Z,5.66
2019-01-29T02:07:25.144Z,5.73
2019-01-29T02:08:25.164Z,5.75
2019-01-29T02:09:25.125Z,5.80
2019-01-29T02:10:25.120Z,5.76
2019-01-29T02:11:25.111Z,5.87
2019-01-29T02:12:25.640Z,5.75
2019-01-29T02:13:25.080Z,5.73
2019-01-29T02:14:25.105Z,5.72
2019-01-29T02:15:25.067Z,5.72
2019-01-29T02:16:25.055Z,5.72
2019-01-29T02:17:25.046Z,5.71
2019-01-29T02:18:25.026Z,5.68
2019-01-29T02:19:25.016Z,5.72
2019-01-29T02:20:25.028Z,5.65
2019-01-29T02:21:25.005Z,5.59
2019-01-29T02:22:24.991Z,5.68
2019-01-29T02:23:24.983Z,5.66
2019-01-29T02:24:24.968Z,5.72
2019-01-29T02:25:24.990Z,5.68
2019-01-29T02:26:24.947Z,5.65
2019-01-29T02:27:24.938Z,5.48
2019-01-29T02:28:24.927Z,5.50
2019-01-29T02:29:24.919Z,5.44
2019-01-29T02:30:24.906Z,5.47
2019-01-29T02:31:24.910Z,5.44
2019-01-29T02:32:24.887Z,5.43
2019-01-29T02:33:25.273Z,5.54
2019-01-29T02:34:24.864Z,5.48
2019-01-29T02:35:24.858Z,5.46
2019-01-29T02:36:24.873Z,5.48
2019-01-29T02:37:24.833Z,5.50
2019-01-29T02:38:24.813Z,5.44
2019-01-29T02:39:24.804Z,5.41
2019-01-29T02:40:24.793Z,5.39
2019-01-29T02:41:24.782Z,5.43
2019-01-29T02:42:24.801Z,5.39
2019-01-29T02:43:24.767Z,5.46
2019-01-29T02:44:24.750Z,5.56
2019-01-29T02:45:24.741Z,5.61
2019-01-29T02:46:24.734Z,5.54
2019-01-29T02:47:24.762Z,5.48
2019-01-29T02:48:24.712Z,5.56
2019-01-29T02:49:24.701Z,5.56
2019-01-29T02:50:24.687Z,5.57
2019-01-29T02:51:24.683Z,5.50
2019-01-29T02:52:24.665Z,5.53
2019-01-29T02:53:24.697Z,5.35
2019-01-29T02:54:24.647Z,5.35
2019-01-29T02:55:24.639Z,5.43
2019-01-29T02:56:24.631Z,5.32
2019-01-29T02:57:24.618Z,5.41
2019-01-29T03:14:54.170Z,4.94
2019-01-29T03:15:53.953Z,4.92
2019-01-29T03:16:53.934Z,5.04
2019-01-29T03:17:53.924Z,4.97
2019-01-29T03:18:53.935Z,4.94
2019-01-29T03:19:53.906Z,5.08
2019-01-29T03:20:53.892Z,5.02
2019-01-29T03:21:53.885Z,5.08
2019-01-29T03:22:53.869Z,4.99
2019-01-29T03:23:53.891Z,5.00
2019-01-29T03:24:53.852Z,5.08
2019-01-29T03:25:53.847Z,4.94
2019-01-29T03:26:53.826Z,4.97
2019-01-29T03:27:53.827Z,4.97
2019-01-29T03:28:53.809Z,4.93
2019-01-29T03:29:53.828Z,4.93
2019-01-29T03:30:53.798Z,4.80
2019-01-29T03:31:53.773Z,4.78
2019-01-29T03:32:53.780Z,4.82
2019-01-29T03:33:53.752Z,4.71
2019-01-29T03:34:53.781Z,4.74
2019-01-29T03:35:53.735Z,4.62
2019-01-29T03:36:53.743Z,4.62
2019-01-29T03:37:53.714Z,4.60
2019-01-29T03:38:53.718Z,4.58
2019-01-29T03:39:53.690Z,4.59
2019-01-29T03:40:53.717Z,4.58
2019-01-29T03:41:53.674Z,4.50
2019-01-29T03:42:53.669Z,4.58
2019-01-29T03:43:53.647Z,4.49
2019-01-29T03:44:53.644Z,4.40
2019-01-29T03:45:53.653Z,4.37
2019-01-29T03:46:53.636Z,4.34
2019-01-29T03:47:53.612Z,4.30
2019-01-29T03:48:53.600Z,4.26
2019-01-29T03:49:53.624Z,4.26
2019-01-29T03:50:53.584Z,4.26
2019-01-29T03:51:53.561Z,4.14
2019-01-29T03:52:53.573Z,4.19
2019-01-29T03:53:53.546Z,4.13
2019-01-29T03:54:53.535Z,4.20
2019-01-29T03:55:53.525Z,4.20
2019-01-29T03:56:53.536Z,4.16
2019-01-29T03:57:53.498Z,4.12
2019-01-29T03:58:53.489Z,3.95
2019-01-29T03:59:53.533Z,4.01
2019-01-29T04:00:53.500Z,3.98
2019-01-29T04:01:53.465Z,3.92
2019-01-29T04:02:53.457Z,3.84
2019-01-29T04:03:53.461Z,3.88
2019-01-29T04:04:53.425Z,3.83
2019-01-29T04:05:53.436Z,3.84
2019-01-29T04:06:53.407Z,3.86
2019-01-29T04:07:53.401Z,3.86
2019-01-29T04:08:53.391Z,3.84
2019-01-29T04:09:53.377Z,3.87
2019-01-29T04:10:53.396Z,3.78
2019-01-29T04:11:53.352Z,3.83
2019-01-29T04:12:53.360Z,3.87
2019-01-29T04:13:53.340Z,3.87
2019-01-29T04:14:53.334Z,3.86
2019-01-29T04:15:53.311Z,3.86
2019-01-29T04:16:53.325Z,3.84
2019-01-29T04:17:53.308Z,3.95
2019-01-29T04:18:53.280Z,3.96
2019-01-29T04:19:53.291Z,4.02
2019-01-29T04:20:53.259Z,3.98
2019-01-29T04:21:53.276Z,4.05
2019-01-29T04:22:53.239Z,3.99
2019-01-29T04:23:53.224Z,4.01
2019-01-29T04:24:53.216Z,3.87
2019-01-29T04:25:53.220Z,3.86
2019-01-29T04:26:53.231Z,3.83
2019-01-29T04:27:53.201Z,3.81
2019-01-29T04:28:53.189Z,3.69
2019-01-29T04:29:53.163Z,3.63
2019-01-29T04:30:53.153Z,3.74
2019-01-29T04:31:53.168Z,3.68
2019-01-29T04:32:53.134Z,3.81
2019-01-29T04:33:53.125Z,3.74
2019-01-29T04:34:53.218Z,3.69
2019-01-29T04:35:53.096Z,3.74
2019-01-29T04:36:53.105Z,3.80
2019-01-29T04:37:53.083Z,3.68
2019-01-29T04:38:53.064Z,3.74
2019-01-29T04:39:53.061Z,3.69
2019-01-29T04:40:53.051Z,3.74
2019-01-29T04:41:53.059Z,3.77
2019-01-29T04:42:53.039Z,3.74
2019-01-29T04:43:53.017Z,3.77
2019-01-29T04:44:53.005Z,3.87
2019-01-29T04:45:52.997Z,3.84
2019-01-29T04:46:53.006Z,3.86
2019-01-29T04:47:52.990Z,3.83
2019-01-29T04:48:52.965Z,3.78
2019-01-29T04:49:53.666Z,3.76
2019-01-29T04:50:52.938Z,3.83
2019-01-29T04:51:52.933Z,3.73
2019-01-29T04:52:52.942Z,3.86
2019-01-29T04:53:57.585Z,3.86
2019-01-29T04:54:52.907Z,3.81
2019-01-29T04:55:52.912Z,3.84
2019-01-29T04:56:52.876Z,3.87
2019-01-29T04:57:52.872Z,3.88
2019-01-29T04:58:52.881Z,3.92
2019-01-29T04:59:52.850Z,3.88
2019-01-29T05:00:52.844Z,3.95
2019-01-29T05:01:52.823Z,3.91
2019-01-29T05:02:52.812Z,3.91
2019-01-29T05:03:52.840Z,3.88
2019-01-29T05:04:52.807Z,3.91
2019-01-29T05:05:52.788Z,3.87
2019-01-29T05:06:52.779Z,3.86
2019-01-29T05:07:52.776Z,3.88
2019-01-29T05:08:52.748Z,3.87
2019-01-29T05:09:52.781Z,3.99
2019-01-29T05:10:52.728Z,3.84
2019-01-29T05:11:52.726Z,3.86
2019-01-29T05:12:52.720Z,3.88
2019-01-29T05:13:52.701Z,3.83
2019-01-29T05:14:52.711Z,3.81
2019-01-29T05:15:52.677Z,3.84
2019-01-29T05:16:52.670Z,3.87
2019-01-29T05:17:52.665Z,3.81
2019-01-29T05:18:52.682Z,3.83
2019-01-29T05:19:52.634Z,3.84
2019-01-29T05:20:52.622Z,3.78
2019-01-29T05:21:52.614Z,3.80
2019-01-29T05:22:52.605Z,3.77
2019-01-29T05:23:52.618Z,3.81
2019-01-29T05:24:52.603Z,3.77
2019-01-29T05:25:52.575Z,3.74
2019-01-29T05:26:52.570Z,3.70
2019-01-29T05:27:52.685Z,3.81
2019-01-29T05:28:52.565Z,3.68
2019-01-29T05:29:52.531Z,3.62
2019-01-29T05:30:52.539Z,3.70
2019-01-29T05:31:52.515Z,3.62
2019-01-29T05:32:52.514Z,3.60
2019-01-29T05:33:52.487Z,3.53
2019-01-29T05:34:52.511Z,3.58
2019-01-29T05:35:52.477Z,3.56
2019-01-29T05:36:52.466Z,3.55
2019-01-29T05:37:52.451Z,3.58
2019-01-29T05:38:52.439Z,3.50
2019-01-29T05:39:52.444Z,3.40
2019-01-29T05:40:52.419Z,3.44
2019-01-29T05:41:52.426Z,3.40
2019-01-29T05:42:52.395Z,3.29
2019-01-29T05:43:52.384Z,3.44
2019-01-29T05:44:52.379Z,3.36
2019-01-29T05:45:52.369Z,3.36
2019-01-29T05:46:52.384Z,3.42
2019-01-29T05:47:52.343Z,3.42
2019-01-29T05:48:52.326Z,3.34
2019-01-29T05:49:52.321Z,3.31
2019-01-29T05:50:52.312Z,3.29
2019-01-29T05:51:52.322Z,3.22
2019-01-29T05:52:52.309Z,3.19
2019-01-29T05:53:53.160Z,3.13
2019-01-29T05:54:52.287Z,3.13
2019-01-29T05:55:52.307Z,3.16
2019-01-29T05:56:52.250Z,3.22
2019-01-29T05:57:52.257Z,3.18
2019-01-29T05:58:52.228Z,3.18
2019-01-29T05:59:52.222Z,3.18
2019-01-29T06:00:52.207Z,3.21
2019-01-29T06:01:52.211Z,3.18
2019-01-29T06:02:52.188Z,3.11
2019-01-29T06:03:52.176Z,3.13
2019-01-29T06:04:52.162Z,3.03
2019-01-29T06:05:52.169Z,3.01
2019-01-29T06:06:52.138Z,3.00
2019-01-29T06:07:52.136Z,2.83
2019-01-29T06:08:52.125Z,2.85
2019-01-29T06:09:52.172Z,2.80
2019-01-29T06:10:52.126Z,2.72
2019-01-29T06:11:52.109Z,2.74
2019-01-29T06:12:52.105Z,2.71
2019-01-29T06:13:52.076Z,2.77
2019-01-29T06:14:52.117Z,2.75
2019-01-29T06:15:52.065Z,2.72
2019-01-29T06:16:52.073Z,2.79
2019-01-29T06:17:52.042Z,2.79
2019-01-29T06:18:52.049Z,2.79
2019-01-29T06:19:52.001Z,2.72
2019-01-29T06:20:52.034Z,2.85
2019-01-29T06:21:52.021Z,2.86
2019-01-29T06:22:51.997Z,2.82
2019-01-29T06:23:51.974Z,2.92
2019-01-29T06:24:51.954Z,2.85
2019-01-29T06:25:51.951Z,2.87
2019-01-29T06:26:51.975Z,2.83
2019-01-29T06:27:51.932Z,2.80
2019-01-29T06:28:51.930Z,2.87
2019-01-29T06:29:51.933Z,2.86
2019-01-29T06:30:51.902Z,2.89
2019-01-29T06:31:51.950Z,2.83
2019-01-29T06:32:51.887Z,2.90
2019-01-29T06:33:51.873Z,2.80
2019-01-29T06:34:51.893Z,2.85
2019-01-29T06:35:51.852Z,2.79
2019-01-29T06:36:51.834Z,2.85
2019-01-29T06:37:51.842Z,2.89
2019-01-29T06:38:51.829Z,2.83
2019-01-29T06:39:51.798Z,2.90
2019-01-29T06:40:51.803Z,2.93
2019-01-29T06:41:51.787Z,2.90
2019-01-29T06:42:51.773Z,2.89
2019-01-29T06:43:51.844Z,2.86
2019-01-29T06:44:51.788Z,2.83
2019-01-29T06:45:51.740Z,2.74
2019-01-29T06:46:51.737Z,2.82
2019-01-29T06:47:51.774Z,2.82
2019-01-29T06:48:51.751Z,2.85
2019-01-29T06:49:51.705Z,2.90
2019-01-29T06:50:51.687Z,2.86
2019-01-29T06:51:52.175Z,2.82
2019-01-29T06:52:51.669Z,2.86
2019-01-29T06:53:51.679Z,2.74
2019-01-29T06:54:51.675Z,2.65
2019-01-29T06:55:51.628Z,2.68
2019-01-29T06:56:51.617Z,2.68
2019-01-29T06:57:55.632Z,2.74
2019-01-29T06:58:51.597Z,2.74
2019-01-29T06:59:51.616Z,2.57
2019-01-29T07:00:51.584Z,2.65
2019-01-29T07:01:51.572Z,2.61
2019-01-29T07:02:51.561Z,2.67
2019-01-29T07:03:51.544Z,2.69
2019-01-29T07:04:51.557Z,2.72
2019-01-29T07:05:51.555Z,2.74
2019-01-29T07:06:51.520Z,2.77
2019-01-29T07:07:51.574Z,2.74
2019-01-29T07:08:51.509Z,2.75
2019-01-29T07:09:51.527Z,2.72
2019-01-29T07:10:51.479Z,2.86
2019-01-29T07:11:51.469Z,2.86
2019-01-29T07:12:51.454Z,2.85
2019-01-29T07:13:51.452Z,2.90
2019-01-29T07:14:51.478Z,3.05
2019-01-29T07:15:51.422Z,2.95
2019-01-29T07:16:51.407Z,2.97
2019-01-29T07:17:51.432Z,3.05
2019-01-29T07:18:51.385Z,3.10
2019-01-29T07:19:51.441Z,3.11
2019-01-29T07:20:51.375Z,3.11
2019-01-29T07:21:51.365Z,3.03
2019-01-29T07:22:51.358Z,3.01
2019-01-29T07:23:51.335Z,3.07
2019-01-29T07:24:51.325Z,3.07
2019-01-29T07:25:51.342Z,3.03
2019-01-29T07:26:51.317Z,3.01
2019-01-29T07:27:51.301Z,3.14
2019-01-29T07:28:51.318Z,3.04
2019-01-29T07:29:51.271Z,3.08
2019-01-29T07:30:51.294Z,3.11
2019-01-29T07:31:51.278Z,3.07
2019-01-29T07:32:51.253Z,3.05
2019-01-29T07:33:51.247Z,3.13
2019-01-29T07:34:51.237Z,3.07
2019-01-29T07:35:51.207Z,3.19
2019-01-29T07:36:51.255Z,3.23
2019-01-29T07:37:51.188Z,3.22
2019-01-29T07:38:51.178Z,3.28
2019-01-29T07:39:51.174Z,3.29
2019-01-29T07:40:51.172Z,3.34
2019-01-29T07:41:51.172Z,3.21
2019-01-29T07:42:51.149Z,3.21
2019-01-29T07:43:51.176Z,3.31
2019-01-29T07:44:51.125Z,3.23
2019-01-29T07:45:51.167Z,3.29
2019-01-29T07:46:51.104Z,3.28
2019-01-29T07:47:51.086Z,3.11
2019-01-29T07:48:51.175Z,3.13
2019-01-29T07:49:51.065Z,3.11
2019-01-29T07:50:51.074Z,3.11
2019-01-29T07:51:51.080Z,3.11
2019-01-29T07:52:51.058Z,3.18
2019-01-29T07:53:51.043Z,3.14
2019-01-29T07:54:51.472Z,3.01
2019-01-29T07:55:50.999Z,3.01
2019-01-29T07:56:50.991Z,3.07
2019-01-29T07:57:51.015Z,3.00
2019-01-29T07:58:50.979Z,3.05
2019-01-29T07:59:50.960Z,3.05
2019-01-29T08:00:50.954Z,3.01
2019-01-29T08:01:50.956Z,3.05
2019-01-29T08:02:50.924Z,3.01
2019-01-29T08:03:50.938Z,3.08
2019-01-29T08:04:50.906Z,3.10
2019-01-29T08:05:50.892Z,3.21
2019-01-29T08:06:50.951Z,3.28
2019-01-29T08:07:50.889Z,3.42
2019-01-29T08:08:50.880Z,3.47
2019-01-29T08:09:50.895Z,3.42
2019-01-29T08:10:50.869Z,3.44
2019-01-29T08:11:50.837Z,3.44
2019-01-29T08:12:50.969Z,3.44
2019-01-29T08:13:50.850Z,3.37
2019-01-29T08:14:50.829Z,3.36
2019-01-29T08:15:50.843Z,3.42
2019-01-29T08:16:50.817Z,3.26
2019-01-29T08:17:50.769Z,3.29
2019-01-29T08:18:50.797Z,3.25
2019-01-29T08:19:50.744Z,3.29
2019-01-29T08:20:50.788Z,3.26
2019-01-29T08:21:50.738Z,3.37
2019-01-29T08:22:50.714Z,3.45
2019-01-29T08:23:50.732Z,3.44
2019-01-29T08:24:53.274Z,3.62
2019-01-29T08:25:51.685Z,3.65
2019-01-29T08:26:50.687Z,3.68
2019-01-29T08:27:50.660Z,3.69
2019-01-29T08:28:50.724Z,3.62
2019-01-29T08:29:50.645Z,3.65
2019-01-29T08:30:50.635Z,3.60
2019-01-29T08:31:50.614Z,3.53
2019-01-29T08:32:50.617Z,3.51
2019-01-29T08:33:50.653Z,3.47
2019-01-29T08:34:50.666Z,3.44
2019-01-29T08:35:50.657Z,3.37
2019-01-29T08:36:50.573Z,3.36
2019-01-29T08:37:50.557Z,3.44
2019-01-29T08:38:50.550Z,3.48
2019-01-29T08:39:50.557Z,3.55
2019-01-29T08:40:50.659Z,3.56
2019-01-29T08:41:50.509Z,3.66
2019-01-29T08:42:50.503Z,3.68
2019-01-29T08:43:50.503Z,3.81
2019-01-29T08:44:50.485Z,3.77
2019-01-29T08:45:50.564Z,3.80
2019-01-29T08:46:50.458Z,3.74
2019-01-29T08:47:50.450Z,3.86
2019-01-29T08:48:50.477Z,3.78
2019-01-29T08:49:50.465Z,3.74
2019-01-29T08:50:50.432Z,3.58
2019-01-29T08:51:50.413Z,3.45
2019-01-29T08:52:50.398Z,3.40
2019-01-29T08:53:50.391Z,3.45
2019-01-29T08:54:50.398Z,3.47
2019-01-29T08:55:50.486Z,3.56
2019-01-29T08:56:50.411Z,3.62
2019-01-29T08:57:50.347Z,3.62
2019-01-29T08:58:50.364Z,3.69
2019-01-29T08:59:50.362Z,3.73
2019-01-29T09:00:50.331Z,3.68
2019-01-29T09:01:50.333Z,3.66
2019-01-29T09:02:50.310Z,3.68
2019-01-29T09:03:50.299Z,3.70
2019-01-29T09:04:50.265Z,3.69
2019-01-29T09:05:50.282Z,3.73
2019-01-29T09:06:50.246Z,3.68
2019-01-29T09:07:50.269Z,3.73
2019-01-29T09:08:50.262Z,3.74
2019-01-29T09:09:50.294Z,3.73
2019-01-29T09:10:50.236Z,3.80
2019-01-29T09:11:50.199Z,3.80
2019-01-29T09:12:50.183Z,3.87
2019-01-29T09:13:50.180Z,3.83
2019-01-29T09:14:50.159Z,3.88
2019-01-29T09:15:50.177Z,3.87
2019-01-29T09:16:50.175Z,4.02
2019-01-29T09:17:50.133Z,3.96
2019-01-29T09:18:50.122Z,4.02
2019-01-29T09:19:50.120Z,4.06
2019-01-29T09:20:50.103Z,4.16
2019-01-29T09:21:50.135Z,4.22
2019-01-29T09:22:50.101Z,4.23
2019-01-29T09:23:50.071Z,4.16
2019-01-29T09:24:50.063Z,4.14
2019-01-29T09:25:50.055Z,4.19
2019-01-29T09:26:50.034Z,4.24
2019-01-29T09:27:50.057Z,4.26
2019-01-29T09:28:50.082Z,4.28
2019-01-29T09:29:50.014Z,4.16
2019-01-29T09:30:50.002Z,4.02
2019-01-29T09:31:49.991Z,3.92
2019-01-29T09:32:50.009Z,3.87
2019-01-29T09:33:49.970Z,3.86
2019-01-29T09:34:49.957Z,3.92
2019-01-29T09:35:49.960Z,3.95
2019-01-29T09:36:49.951Z,4.01
2019-01-29T09:37:49.967Z,4.06
2019-01-29T09:38:49.936Z,4.12
2019-01-29T09:39:49.934Z,4.04
2019-01-29T09:40:49.909Z,4.02
2019-01-29T09:41:49.888Z,4.01
2019-01-29T09:42:49.880Z,3.96
2019-01-29T09:43:49.884Z,4.14
2019-01-29T09:44:49.852Z,4.17
2019-01-29T09:45:49.851Z,4.23
2019-01-29T09:46:49.825Z,4.17
2019-01-29T09:47:49.831Z,4.02
2019-01-29T09:48:49.873Z,3.98
2019-01-29T09:49:49.792Z,3.87
2019-01-29T09:50:49.787Z,3.94
2019-01-29T09:51:49.792Z,3.92
2019-01-29T09:52:49.769Z,3.91
2019-01-29T09:53:49.792Z,3.88
2019-01-29T09:54:49.768Z,3.95
2019-01-29T09:55:49.735Z,4.01
2019-01-29T09:56:49.722Z,4.04
2019-01-29T09:57:49.719Z,4.04
2019-01-29T09:58:49.707Z,3.98
2019-01-29T09:59:49.723Z,4.14
2019-01-29T10:00:49.697Z,4.16
2019-01-29T10:01:49.703Z,4.10
2019-01-29T10:02:49.726Z,4.16
2019-01-29T10:03:49.649Z,4.16
2019-01-29T10:04:49.665Z,4.22
2019-01-29T10:05:49.684Z,4.12
2019-01-29T10:06:49.628Z,4.13
2019-01-29T10:07:49.618Z,4.10
2019-01-29T10:08:49.592Z,3.95
2019-01-29T10:09:49.617Z,4.10
2019-01-29T10:10:49.636Z,3.94
2019-01-29T10:11:49.566Z,3.81
2019-01-29T10:12:49.565Z,3.87
2019-01-29T10:13:49.547Z,4.04
2019-01-29T10:14:49.540Z,3.99
2019-01-29T10:15:49.553Z,3.98
2019-01-29T10:16:49.591Z,4.04
2019-01-29T10:17:49.537Z,4.04
2019-01-29T10:18:49.562Z,4.16
2019-01-29T10:19:49.573Z,4.23
2019-01-29T10:20:49.472Z,4.30
2019-01-29T10:21:49.491Z,4.34
2019-01-29T10:22:49.500Z,4.37
2019-01-29T10:23:49.445Z,4.49
2019-01-29T10:24:49.435Z,4.48
2019-01-29T10:25:49.545Z,4.53
2019-01-29T10:26:49.410Z,4.55
2019-01-29T10:27:49.397Z,4.48
2019-01-29T10:28:49.424Z,4.49
2019-01-29T10:29:49.390Z,4.52
2019-01-29T10:30:49.426Z,4.56
2019-01-29T10:31:49.431Z,4.49
2019-01-29T10:32:49.381Z,4.40
2019-01-29T10:33:49.382Z,4.31
2019-01-29T10:34:49.352Z,4.23
2019-01-29T10:35:49.370Z,4.35
2019-01-29T10:36:49.351Z,4.38
2019-01-29T10:37:49.354Z,4.40
2019-01-29T10:38:49.381Z,4.50
2019-01-29T10:39:49.378Z,4.56
2019-01-29T10:40:49.274Z,4.59
2019-01-29T10:41:49.359Z,4.71
2019-01-29T10:42:49.286Z,4.80
2019-01-29T10:43:49.289Z,4.80
2019-01-29T10:44:49.221Z,4.80
2019-01-29T10:45:49.248Z,4.82
2019-01-29T10:46:49.331Z,4.84
2019-01-29T10:47:49.227Z,4.78
2019-01-29T10:48:49.228Z,4.86
2019-01-29T10:49:49.220Z,4.96
2019-01-29T10:50:49.192Z,4.99
2019-01-29T10:51:49.189Z,5.08
2019-01-29T10:52:49.235Z,4.96
2019-01-29T10:53:49.181Z,4.90
2019-01-29T10:54:49.191Z,5.12
2019-01-29T10:55:49.180Z,5.02
2019-01-29T10:56:49.138Z,5.07
2019-01-29T10:57:49.269Z,5.04
2019-01-29T10:58:49.108Z,4.93
2019-01-29T10:59:49.112Z,5.02
2019-01-29T11:00:49.091Z,5.05
2019-01-29T11:01:49.111Z,5.10
2019-01-29T11:02:49.100Z,5.17
2019-01-29T11:03:49.104Z,5.10
2019-01-29T11:04:49.037Z,5.07
2019-01-29T11:05:49.059Z,5.04
2019-01-29T11:06:48.993Z,4.93
2019-01-29T11:07:48.992Z,4.94
2019-01-29T11:08:48.982Z,4.94
2019-01-29T11:09:48.963Z,4.99
2019-01-29T11:10:48.948Z,5.05
2019-01-29T11:11:48.933Z,5.12
2019-01-29T11:12:48.945Z,5.05
2019-01-29T11:13:48.963Z,5.07
2019-01-29T11:14:48.914Z,5.00
2019-01-29T11:15:48.947Z,5.08
2019-01-29T11:16:48.944Z,4.93
2019-01-29T11:17:48.914Z,4.97
2019-01-29T11:18:48.858Z,5.05
2019-01-29T11:19:48.954Z,5.07
2019-01-29T11:20:48.889Z,5.04
2019-01-29T11:21:48.868Z,5.10
2019-01-29T11:22:48.855Z,5.04
2019-01-29T11:23:48.801Z,5.07
2019-01-29T11:24:48.814Z,5.11
2019-01-29T11:25:55.810Z,5.17
2019-01-29T11:26:49.786Z,5.21
2019-01-29T11:27:48.761Z,5.17
2019-01-29T11:28:48.775Z,5.21
2019-01-29T11:29:48.790Z,5.11
2019-01-29T11:30:48.797Z,5.15
2019-01-29T11:31:48.868Z,5.05
2019-01-29T11:32:48.731Z,4.94
2019-01-29T11:33:48.748Z,5.10
2019-01-29T11:34:48.721Z,5.05
2019-01-29T11:35:48.669Z,5.08
2019-01-29T11:36:48.678Z,5.10
2019-01-29T11:37:48.682Z,5.17
2019-01-29T11:38:48.678Z,5.18
2019-01-29T11:39:48.673Z,5.23
2019-01-29T11:40:48.657Z,5.17
2019-01-29T11:41:48.669Z,5.17
2019-01-29T11:42:48.631Z,5.20
2019-01-29T11:43:48.692Z,5.28
2019-01-29T11:44:48.635Z,5.18
2019-01-29T11:45:48.573Z,5.29
2019-01-29T11:46:48.556Z,5.21
2019-01-29T11:47:48.637Z,5.23
2019-01-29T11:48:48.583Z,5.15
2019-01-29T11:49:48.548Z,5.11
2019-01-29T11:50:48.565Z,5.07
2019-01-29T11:51:48.565Z,5.08
2019-01-29T11:52:48.603Z,5.10
2019-01-29T11:53:48.594Z,5.11
2019-01-29T11:54:50.382Z,5.20
2019-01-29T11:55:48.466Z,5.14
2019-01-29T11:56:48.467Z,5.25
2019-01-29T11:57:48.464Z,5.17
2019-01-29T11:58:48.596Z,5.25
2019-01-29T11:59:48.449Z,5.11
2019-01-29T12:00:48.467Z,5.11
2019-01-29T12:01:48.410Z,5.10
2019-01-29T12:02:48.391Z,5.08
2019-01-29T12:03:48.469Z,5.15
2019-01-29T12:04:48.459Z,5.25
2019-01-29T12:05:48.434Z,5.26
2019-01-29T12:06:48.373Z,5.30
2019-01-29T12:07:48.390Z,5.28
2019-01-29T12:08:48.362Z,5.29
2019-01-29T12:09:48.361Z,5.28
2019-01-29T12:10:48.324Z,5.25
2019-01-29T12:11:48.373Z,5.29
2019-01-29T12:12:48.335Z,5.29
2019-01-29T12:13:48.297Z,5.41
2019-01-29T12:14:48.361Z,5.41
2019-01-29T12:15:48.241Z,5.35
2019-01-29T12:16:48.233Z,5.38
2019-01-29T12:17:48.224Z,5.36
2019-01-29T12:18:48.245Z,5.39
2019-01-29T12:19:48.342Z,5.43
2019-01-29T12:20:48.234Z,5.44
2019-01-29T12:21:48.192Z,5.57
2019-01-29T12:22:48.258Z,5.57
2019-01-29T12:23:48.188Z,5.68
2019-01-29T12:24:48.154Z,5.68
2019-01-29T12:25:48.230Z,5.72
2019-01-29T12:26:48.206Z,5.76
2019-01-29T12:27:48.178Z,5.75
2019-01-29T12:28:48.193Z,5.72
2019-01-29T12:29:48.186Z,5.72
2019-01-29T12:30:48.153Z,5.75
2019-01-29T12:31:48.097Z,5.80
2019-01-29T12:32:48.108Z,5.76
2019-01-29T12:33:48.111Z,5.75
2019-01-29T12:34:48.066Z,5.76
2019-01-29T12:35:48.131Z,5.87
2019-01-29T12:36:48.065Z,5.90
2019-01-29T12:37:48.060Z,5.93
2019-01-29T12:38:48.002Z,6.05
2019-01-29T12:39:47.980Z,6.02
2019-01-29T12:40:47.975Z,6.07
2019-01-29T12:41:47.985Z,5.98
2019-01-29T12:42:47.974Z,5.91
2019-01-29T12:43:47.941Z,5.90
2019-01-29T12:44:47.933Z,5.91
2019-01-29T12:45:48.271Z,5.82
2019-01-29T12:46:47.904Z,5.84
2019-01-29T12:47:47.931Z,5.86
2019-01-29T12:48:47.897Z,5.82
2019-01-29T12:49:47.892Z,5.98
2019-01-29T12:50:47.867Z,5.87
2019-01-29T12:51:47.876Z,5.93
2019-01-29T12:52:47.896Z,5.93
2019-01-29T12:53:47.832Z,5.98
2019-01-29T12:54:47.859Z,5.93
2019-01-29T12:55:47.813Z,5.93
2019-01-29T12:56:47.814Z,5.91
2019-01-29T12:57:47.820Z,5.94
2019-01-29T12:58:47.808Z,5.97
2019-01-29T12:59:47.780Z,6.04
2019-01-29T13:00:47.778Z,5.91
2019-01-29T13:01:47.786Z,5.80
2019-01-29T13:02:47.739Z,5.89
2019-01-29T13:03:47.730Z,5.91
2019-01-29T13:04:47.737Z,5.83
2019-01-29T13:05:47.701Z,5.83
2019-01-29T13:06:47.696Z,5.82
2019-01-29T13:07:47.716Z,5.84
2019-01-29T13:08:47.682Z,5.87
2019-01-29T13:09:47.671Z,5.91
2019-01-29T13:10:47.745Z,5.73
2019-01-29T13:11:47.641Z,5.71
2019-01-29T13:12:47.752Z,5.68
2019-01-29T13:13:47.616Z,5.76
2019-01-29T13:14:47.603Z,5.62
2019-01-29T13:15:47.604Z,5.64
2019-01-29T13:16:47.591Z,5.75
2019-01-29T13:17:47.582Z,5.68
2019-01-29T13:18:47.591Z,5.68
2019-01-29T13:19:47.567Z,5.72
2019-01-29T13:20:47.562Z,5.69
2019-01-29T13:21:47.544Z,5.76
2019-01-29T13:22:47.531Z,5.87
2019-01-29T13:23:47.529Z,5.82
2019-01-29T13:24:47.499Z,5.91
2019-01-29T13:25:47.490Z,5.90
2019-01-29T13:26:47.476Z,5.94
2019-01-29T13:27:47.486Z,5.93
2019-01-29T13:28:47.487Z,5.94
2019-01-29T13:29:47.467Z,5.89
2019-01-29T13:30:47.441Z,5.94
2019-01-29T13:31:47.431Z,5.83
2019-01-29T13:32:47.500Z,5.72
2019-01-29T13:33:47.463Z,5.65
2019-01-29T13:34:47.462Z,5.53